createdAt,value
2022-10-20T00:02:42.313Z,5.28
2022-10-20T00:07:45.841Z,5.28
2022-10-20T00:12:48.991Z,5.40
2022-10-20T00:17:53.829Z,5.95
2022-10-20T00:22:57.174Z,6.00
2022-10-20T00:28:00.610Z,5.68
2022-10-20T00:33:08.072Z,4.97
2022-10-20T00:38:14.920Z,5.80
2022-10-20T00:43:19.779Z,5.93
2022-10-20T00:48:28.418Z,5.50
2022-10-20T00:53:31.936Z,6.30
2022-10-20T00:58:35.788Z,6.43
2022-10-20T01:03:51.516Z,5.85
2022-10-20T01:08:57.570Z,6.07
2022-10-20T01:14:03.000Z,5.90
2022-10-20T01:19:38.150Z,6.07
2022-10-20T01:25:03.355Z,7.10
2022-10-20T01:30:17.674Z,6.97
2022-10-20T01:35:23.695Z,6.72
2022-10-20T01:40:58.677Z,7.03
2022-10-20T01:46:03.650Z,6.90
2022-10-20T01:51:08.427Z,7.05
2022-10-20T01:56:30.242Z,7.68
2022-10-20T02:02:18.136Z,7.50
2022-10-20T02:07:29.431Z,6.93
2022-10-20T02:12:37.938Z,7.22
2022-10-20T02:18:05.910Z,7.80
2022-10-20T02:23:10.282Z,7.32
2022-10-20T02:28:15.942Z,10.32
2022-10-20T02:33:20.283Z,9.05
2022-10-20T02:38:24.392Z,8.40
2022-10-20T02:43:27.897Z,7.40
2022-10-20T02:48:31.116Z,8.10
2022-10-20T02:53:34.579Z,7.65
2022-10-20T02:58:38.190Z,8.80
2022-10-20T03:03:41.893Z,7.85
2022-10-20T03:08:45.310Z,7.75
2022-10-20T03:13:48.445Z,9.43
2022-10-20T03:18:51.802Z,7.80
2022-10-20T03:23:57.044Z,8.13
2022-10-20T03:29:00.699Z,9.02
2022-10-20T03:34:03.974Z,7.85
2022-10-20T03:39:07.514Z,7.63
2022-10-20T03:44:11.638Z,9.73
2022-10-20T03:49:15.155Z,8.25
2022-10-20T03:54:18.445Z,7.68
2022-10-20T03:59:24.437Z,8.25
2022-10-20T04:04:30.015Z,7.45
2022-10-20T04:09:33.373Z,7.65
2022-10-20T04:14:39.539Z,7.78
2022-10-20T04:19:42.822Z,7.68
2022-10-20T04:24:45.987Z,7.35
2022-10-20T04:29:50.393Z,7.78
2022-10-20T04:34:53.935Z,8.02
2022-10-20T04:39:57.451Z,8.40
2022-10-20T04:45:01.203Z,7.50
2022-10-20T04:50:06.748Z,7.93
2022-10-20T04:55:10.383Z,6.85
2022-10-20T05:00:15.678Z,7.45
2022-10-20T05:05:19.004Z,7.20
2022-10-20T05:10:22.712Z,6.03
2022-10-20T05:15:27.456Z,6.28
2022-10-20T05:20:36.826Z,6.65
2022-10-20T05:25:49.374Z,7.10
2022-10-20T05:30:53.849Z,7.22
2022-10-20T05:35:58.732Z,7.20
2022-10-20T05:41:14.022Z,6.78
2022-10-20T05:46:18.152Z,9.45
2022-10-20T05:51:25.755Z,6.50
2022-10-20T05:56:32.825Z,6.13
2022-10-20T06:01:39.829Z,4.88
2022-10-20T06:06:43.551Z,4.70
2022-10-20T06:11:47.097Z,5.10
2022-10-20T06:16:52.455Z,5.80
2022-10-20T06:21:55.707Z,5.75
2022-10-20T06:26:59.350Z,5.78
2022-10-20T06:32:02.867Z,5.55
2022-10-20T06:37:06.471Z,5.93
2022-10-20T06:42:16.018Z,7.78
2022-10-20T06:47:22.287Z,6.07
2022-10-20T06:52:26.301Z,5.22
2022-10-20T06:57:32.273Z,4.90
2022-10-20T07:02:41.735Z,5.63
2022-10-20T07:07:48.356Z,6.82
2022-10-20T07:12:51.708Z,6.30
2022-10-20T07:17:54.943Z,5.25
2022-10-20T07:22:58.258Z,5.32
2022-10-20T07:28:01.692Z,5.97
2022-10-20T07:33:06.071Z,6.10
2022-10-20T07:38:10.351Z,5.60
2022-10-20T07:43:14.080Z,6.35
2022-10-20T07:48:17.389Z,5.53
2022-10-20T07:53:21.290Z,4.68
2022-10-20T07:58:25.531Z,4.85
2022-10-20T08:03:28.937Z,4.63
2022-10-20T08:08:33.374Z,4.32
2022-10-20T08:13:36.628Z,4.20
2022-10-20T08:24:03.637Z,5.10
2022-10-20T08:29:06.913Z,5.47
2022-10-20T08:34:10.352Z,4.55
2022-10-20T08:39:13.656Z,4.95
2022-10-20T08:44:26.494Z,5.28
2022-10-20T08:49:33.915Z,5.80
2022-10-20T08:54:37.490Z,4.68
2022-10-20T08:59:40.999Z,4.45
2022-10-20T09:04:47.188Z,3.72
2022-10-20T09:09:50.934Z,2.97
2022-10-20T09:14:55.672Z,3.72
2022-10-20T09:20:01.387Z,3.75
2022-10-20T09:25:06.112Z,3.70
2022-10-20T09:30:24.466Z,3.72
2022-10-20T09:35:36.220Z,4.55
2022-10-20T09:40:46.981Z,4.35
2022-10-20T09:45:54.994Z,4.40
2022-10-20T09:50:59.624Z,3.15
2022-10-20T09:56:03.220Z,3.85
2022-10-20T10:01:13.561Z,3.65
2022-10-20T10:06:31.236Z,4.63
2022-10-20T10:11:38.739Z,4.18
2022-10-20T10:21:56.888Z,4.57
2022-10-20T10:27:00.089Z,4.70
2022-10-20T10:32:26.294Z,4.35
2022-10-20T10:37:34.019Z,4.68
2022-10-20T10:42:41.408Z,4.95
2022-10-20T10:48:02.819Z,4.65
2022-10-20T10:53:35.495Z,4.93
2022-10-20T10:59:06.489Z,5.13
2022-10-20T11:04:47.443Z,5.00
2022-10-20T11:10:19.388Z,5.37
2022-10-20T11:15:42.458Z,3.97
2022-10-20T11:21:21.154Z,4.13
2022-10-20T11:26:35.486Z,4.18
2022-10-20T11:31:51.886Z,3.45
2022-10-20T11:37:26.399Z,4.57
2022-10-20T11:43:08.894Z,3.83
2022-10-20T11:48:38.992Z,5.63
2022-10-20T11:53:55.070Z,4.38
2022-10-20T11:59:10.397Z,5.00
2022-10-20T12:04:36.719Z,4.30
2022-10-20T12:10:06.345Z,4.32
2022-10-20T12:15:24.117Z,4.13
2022-10-20T12:20:28.260Z,3.97
2022-10-20T12:25:31.553Z,4.22
2022-10-20T12:30:37.939Z,4.05
2022-10-20T12:36:19.542Z,5.05
2022-10-20T12:46:32.222Z,4.18
2022-10-20T12:51:41.161Z,4.07
2022-10-20T12:56:45.248Z,4.55
2022-10-20T13:02:10.106Z,4.40
2022-10-20T13:07:13.654Z,4.43
2022-10-20T13:12:27.918Z,4.10
2022-10-20T13:17:45.517Z,4.43
2022-10-20T13:22:53.865Z,4.20
2022-10-20T13:28:13.636Z,5.22
2022-10-20T13:34:03.427Z,4.75
2022-10-20T13:39:12.862Z,5.00
2022-10-20T13:44:43.942Z,5.38
2022-10-20T13:49:54.305Z,5.90
2022-10-20T13:55:00.146Z,5.28
2022-10-20T14:00:24.665Z,5.88
2022-10-20T14:05:38.166Z,5.90
2022-10-20T14:11:05.770Z,6.63
2022-10-20T14:16:21.515Z,6.05
2022-10-20T14:21:25.015Z,5.95
2022-10-20T14:26:29.477Z,6.20
2022-10-20T14:31:33.090Z,5.60
2022-10-20T14:36:36.374Z,6.63
2022-10-20T14:41:39.806Z,6.03
2022-10-20T14:46:47.018Z,6.18
2022-10-20T14:52:00.716Z,6.28
2022-10-20T14:57:10.270Z,6.60
2022-10-20T15:02:17.591Z,6.20
2022-10-20T15:07:28.896Z,7.82
2022-10-20T15:12:38.220Z,7.05
2022-10-20T15:17:49.107Z,7.43
2022-10-20T15:22:55.275Z,7.47
2022-10-20T15:27:59.730Z,7.57
2022-10-20T15:33:04.459Z,7.53
2022-10-20T15:38:09.789Z,7.20
2022-10-20T15:43:16.501Z,7.05
2022-10-20T15:48:20.650Z,7.70
2022-10-20T15:53:24.353Z,7.90
2022-10-20T15:58:30.936Z,8.55
2022-10-20T16:03:34.214Z,7.63
2022-10-20T16:08:41.204Z,7.63
2022-10-20T16:13:45.252Z,8.45
2022-10-20T16:18:49.073Z,8.52
2022-10-20T16:23:52.712Z,9.20
2022-10-20T16:28:56.248Z,8.35
2022-10-20T16:33:59.743Z,9.23
2022-10-20T16:39:03.370Z,8.73
2022-10-20T16:44:07.266Z,8.85
2022-10-20T16:49:11.079Z,8.68
2022-10-20T16:54:14.572Z,8.23
2022-10-20T16:59:17.899Z,8.93
2022-10-20T17:04:21.223Z,8.77
2022-10-20T17:09:24.866Z,8.38
2022-10-20T17:14:28.080Z,9.55
2022-10-20T17:19:31.427Z,9.30
2022-10-20T17:24:34.889Z,8.73
2022-10-20T17:29:39.876Z,8.57
2022-10-20T17:34:46.561Z,8.77
2022-10-20T17:39:49.686Z,9.40
2022-10-20T17:44:52.912Z,9.05
2022-10-20T17:49:56.209Z,8.82
2022-10-20T17:55:00.363Z,9.30
2022-10-20T18:00:11.033Z,8.95
2022-10-20T18:05:19.004Z,9.20
2022-10-20T18:15:30.929Z,10.45
2022-10-20T18:20:34.437Z,10.25
2022-10-20T18:25:37.923Z,10.82
2022-10-20T18:30:41.398Z,10.52
2022-10-20T18:35:45.247Z,9.13
2022-10-20T18:40:48.914Z,9.40
2022-10-20T18:45:52.479Z,10.25
2022-10-20T18:51:01.671Z,9.43
2022-10-20T18:56:18.943Z,9.80
2022-10-20T19:01:26.981Z,9.90
2022-10-20T19:06:42.949Z,9.82
2022-10-20T19:11:47.666Z,10.35
2022-10-20T19:16:51.283Z,10.35
2022-10-20T19:21:54.610Z,9.73
2022-10-20T19:32:22.352Z,9.48
2022-10-20T19:37:25.915Z,10.38
2022-10-20T19:42:29.499Z,10.43
2022-10-20T19:47:32.807Z,10.25
2022-10-20T19:52:36.317Z,10.43
2022-10-20T19:57:40.360Z,10.82
2022-10-20T20:02:44.861Z,11.20
2022-10-20T20:07:48.283Z,10.65
2022-10-20T20:12:54.376Z,9.65
2022-10-20T20:17:58.179Z,10.82
2022-10-20T20:23:02.047Z,9.75
2022-10-20T20:28:06.652Z,10.57
2022-10-20T20:33:11.297Z,9.68
2022-10-20T20:38:14.853Z,12.13
2022-10-20T20:43:20.474Z,10.10
2022-10-20T20:48:25.262Z,10.70
2022-10-20T20:53:28.878Z,10.43
2022-10-20T20:58:32.554Z,11.18
2022-10-20T21:03:36.347Z,9.80
2022-10-20T21:08:43.541Z,10.35
2022-10-20T21:13:58.560Z,12.02
2022-10-20T21:19:10.117Z,9.68
2022-10-20T21:24:13.872Z,10.23
2022-10-20T21:29:17.904Z,9.45
2022-10-20T21:34:21.766Z,9.57
2022-10-20T21:39:25.021Z,9.55
2022-10-20T21:44:28.501Z,8.73
2022-10-20T21:49:31.889Z,9.02
2022-10-20T21:54:35.358Z,9.20
2022-10-20T21:59:39.006Z,9.32
2022-10-20T22:04:42.467Z,8.70
2022-10-20T22:09:46.054Z,9.77
2022-10-20T22:14:49.581Z,8.40
2022-10-20T22:19:53.000Z,8.15
2022-10-20T22:24:56.152Z,9.13
2022-10-20T22:29:59.301Z,9.13
2022-10-20T22:35:02.520Z,10.13
2022-10-20T22:40:06.846Z,8.68
2022-10-20T22:45:11.349Z,8.68
2022-10-20T22:50:14.863Z,9.10
2022-10-20T22:55:18.805Z,8.55
2022-10-20T23:00:22.033Z,9.18
2022-10-20T23:05:25.716Z,9.00
2022-10-20T23:10:29.364Z,8.75
2022-10-20T23:15:32.893Z,8.63
2022-10-20T23:20:43.195Z,8.48
2022-10-20T23:25:50.820Z,8.90
2022-10-20T23:31:06.635Z,8.82
2022-10-20T23:36:14.991Z,9.00
2022-10-20T23:41:18.529Z,7.68
2022-10-20T23:46:22.533Z,8.20
2022-10-20T23:51:25.983Z,8.27
2022-10-20T23:56:29.440Z,7.47
